createdAt,value
2017-05-26T00:01:49.522Z,5.42
2017-05-26T00:04:18.876Z,6.43
2017-05-26T00:06:47.872Z,6.03
2017-05-26T00:09:16.848Z,5.45
2017-05-26T00:11:46.145Z,5.70
2017-05-26T00:14:15.182Z,6.30
2017-05-26T00:16:44.168Z,6.23
2017-05-26T00:19:13.384Z,6.15
2017-05-26T00:21:42.350Z,7.60
2017-05-26T00:24:11.309Z,7.50
2017-05-26T00:26:40.633Z,7.53
2017-05-26T00:29:09.639Z,7.73
2017-05-26T00:31:38.612Z,7.45
2017-05-26T00:34:07.927Z,8.17
2017-05-26T00:36:36.961Z,7.50
2017-05-26T00:39:06.017Z,8.13
2017-05-26T00:41:35.286Z,7.12
2017-05-26T00:44:04.318Z,6.90
2017-05-26T00:46:33.316Z,7.32
2017-05-26T00:52:02.882Z,7.93
2017-05-26T00:54:32.181Z,7.65
2017-05-26T00:57:01.155Z,7.42
2017-05-26T00:59:30.138Z,6.85
2017-05-26T01:01:59.406Z,6.83
2017-05-26T01:04:28.392Z,6.20
2017-05-26T01:06:57.383Z,7.08
2017-05-26T01:09:26.666Z,7.70
2017-05-26T01:11:55.647Z,7.88
2017-05-26T01:14:24.617Z,8.23
2017-05-26T01:16:53.925Z,6.98
2017-05-26T01:19:22.890Z,7.28
2017-05-26T01:21:51.868Z,7.37
2017-05-26T01:24:21.100Z,7.52
2017-05-26T01:26:50.078Z,6.80
2017-05-26T01:29:19.058Z,7.67
2017-05-26T01:31:48.333Z,6.28
2017-05-26T01:34:17.706Z,6.82
2017-05-26T01:36:46.721Z,6.83
2017-05-26T01:39:15.945Z,7.33
2017-05-26T01:41:44.945Z,7.08
2017-05-26T01:44:13.886Z,7.47
2017-05-26T01:46:43.174Z,6.70
2017-05-26T01:49:12.146Z,6.87
2017-05-26T01:51:41.124Z,7.12
2017-05-26T01:54:10.345Z,6.92
2017-05-26T01:56:39.345Z,7.75
2017-05-26T01:59:08.312Z,7.33
2017-05-26T02:01:37.615Z,7.43
2017-05-26T02:04:06.572Z,8.70
2017-05-26T02:06:35.575Z,8.00
2017-05-26T02:09:04.895Z,7.22
2017-05-26T02:11:33.857Z,7.50
2017-05-26T02:14:02.829Z,8.12
2017-05-26T02:16:32.135Z,7.10
2017-05-26T02:19:01.073Z,7.40
2017-05-26T02:21:30.110Z,7.98
2017-05-26T02:23:59.359Z,8.28
2017-05-26T02:26:28.377Z,9.03
2017-05-26T02:28:57.375Z,8.88
2017-05-26T02:31:26.607Z,8.33
2017-05-26T02:33:55.522Z,7.30
2017-05-26T02:36:24.642Z,7.28
2017-05-26T02:38:53.938Z,7.57
2017-05-26T02:41:23.759Z,7.07
2017-05-26T02:43:52.879Z,7.48
2017-05-26T02:46:22.083Z,7.40
2017-05-26T02:48:51.073Z,7.78
2017-05-26T02:51:20.036Z,6.60
2017-05-26T02:53:49.291Z,6.87
2017-05-26T02:56:18.274Z,7.10
2017-05-26T02:58:47.265Z,6.28
2017-05-26T03:01:16.565Z,7.03
2017-05-26T03:03:45.529Z,7.38
2017-05-26T03:06:14.522Z,7.40
2017-05-26T03:08:50.036Z,7.37
2017-05-26T03:11:19.008Z,6.97
2017-05-26T03:13:47.963Z,7.88
2017-05-26T03:16:17.177Z,7.07
2017-05-26T03:18:46.161Z,6.62
2017-05-26T03:21:15.138Z,7.13
2017-05-26T03:23:44.672Z,6.90
2017-05-26T03:26:13.637Z,7.90
2017-05-26T03:28:42.618Z,7.23
2017-05-26T03:31:11.953Z,7.23
2017-05-26T03:33:40.947Z,6.77
2017-05-26T03:36:09.993Z,7.73
2017-05-26T03:38:39.324Z,7.17
2017-05-26T03:41:08.316Z,7.20
2017-05-26T03:43:37.278Z,7.53
2017-05-26T03:46:06.518Z,6.58
2017-05-26T03:48:35.791Z,7.05
2017-05-26T03:51:04.763Z,6.62
2017-05-26T03:53:33.989Z,6.92
2017-05-26T03:56:02.950Z,7.88
2017-05-26T03:58:31.914Z,7.07
2017-05-26T04:01:01.305Z,7.28
2017-05-26T04:06:31.927Z,6.55
2017-05-26T04:09:00.982Z,8.10
2017-05-26T04:11:29.961Z,7.22
2017-05-26T04:13:59.230Z,6.93
2017-05-26T04:16:28.205Z,6.58
2017-05-26T04:18:57.190Z,6.95
2017-05-26T04:21:26.445Z,7.25
2017-05-26T04:23:55.414Z,8.22
2017-05-26T04:26:24.382Z,7.72
2017-05-26T04:28:53.690Z,7.25
2017-05-26T04:31:22.665Z,8.67
2017-05-26T04:33:51.653Z,7.57
2017-05-26T04:36:20.941Z,7.92
2017-05-26T04:38:49.934Z,8.12
2017-05-26T04:41:18.924Z,8.42
2017-05-26T04:43:48.236Z,7.42
2017-05-26T04:46:17.211Z,7.77
2017-05-26T04:48:46.170Z,7.18
2017-05-26T04:51:15.706Z,7.93
2017-05-26T04:53:44.856Z,8.17
2017-05-26T04:56:13.868Z,7.32
2017-05-26T04:58:43.198Z,7.65
2017-05-26T05:01:12.171Z,7.52
2017-05-26T05:03:41.129Z,7.27
2017-05-26T05:06:10.352Z,7.47
2017-05-26T05:08:39.323Z,7.38
2017-05-26T05:11:08.309Z,7.88
2017-05-26T05:13:37.625Z,6.98
2017-05-26T05:16:06.627Z,7.47
2017-05-26T05:18:36.223Z,7.02
2017-05-26T05:21:05.884Z,6.35
2017-05-26T05:23:34.850Z,6.37
2017-05-26T05:26:03.846Z,5.42
2017-05-26T05:28:33.237Z,5.78
2017-05-26T05:31:02.206Z,6.17
2017-05-26T05:33:31.188Z,5.42
2017-05-26T05:36:00.550Z,5.25
2017-05-26T05:38:29.538Z,4.40
2017-05-26T05:40:58.504Z,5.58
2017-05-26T05:43:27.796Z,5.62
2017-05-26T05:45:56.796Z,4.72
2017-05-26T05:48:25.004Z,4.96
2017-05-26T05:50:54.230Z,5.22
2017-05-26T05:53:23.207Z,5.14
2017-05-26T05:55:52.171Z,5.02
2017-05-26T05:58:21.420Z,5.02
2017-05-26T06:00:50.390Z,5.40
2017-05-26T06:03:19.373Z,5.78
2017-05-26T06:05:48.610Z,5.90
2017-05-26T06:08:17.585Z,5.48
2017-05-26T06:10:46.567Z,5.88
2017-05-26T06:13:15.901Z,5.74
2017-05-26T06:15:44.855Z,6.04
2017-05-26T06:18:13.865Z,5.66
2017-05-26T06:20:43.171Z,5.16
2017-05-26T06:23:12.153Z,6.18
2017-05-26T06:25:41.126Z,5.82
2017-05-26T06:28:10.407Z,5.70
2017-05-26T06:30:39.436Z,5.08
2017-05-26T06:33:08.412Z,5.90
2017-05-26T06:35:37.733Z,4.86
2017-05-26T06:38:06.734Z,4.52
2017-05-26T06:40:35.766Z,5.08
2017-05-26T06:43:05.109Z,5.08
2017-05-26T06:45:34.103Z,5.50
2017-05-26T06:48:03.084Z,4.78
2017-05-26T06:50:32.426Z,5.62
2017-05-26T06:53:01.419Z,5.76
2017-05-26T06:55:30.394Z,4.22
2017-05-26T06:57:59.631Z,4.34
2017-05-26T07:00:28.585Z,5.58
2017-05-26T07:02:57.556Z,5.42
2017-05-26T07:05:26.806Z,5.20
2017-05-26T07:07:55.763Z,5.08
2017-05-26T07:10:24.728Z,5.64
2017-05-26T07:12:54.044Z,5.30
2017-05-26T07:15:23.008Z,5.02
2017-05-26T07:17:52.035Z,5.40
2017-05-26T07:20:21.330Z,6.22
2017-05-26T07:22:50.300Z,4.30
2017-05-26T07:25:19.283Z,6.46
2017-05-26T07:27:48.584Z,5.66
2017-05-26T07:30:17.557Z,4.54
2017-05-26T07:32:46.575Z,5.94
2017-05-26T07:35:15.872Z,5.72
2017-05-26T07:37:44.865Z,5.10
2017-05-26T07:40:13.793Z,4.72
2017-05-26T07:42:43.062Z,4.40
2017-05-26T07:45:12.053Z,5.28
2017-05-26T07:47:41.029Z,4.92
2017-05-26T07:50:10.303Z,5.52
2017-05-26T07:52:39.278Z,5.00
2017-05-26T07:55:08.342Z,4.62
2017-05-26T07:57:37.611Z,3.70
2017-05-26T08:00:06.599Z,4.34
2017-05-26T08:02:35.587Z,4.92
2017-05-26T08:05:04.937Z,4.52
2017-05-26T08:07:33.947Z,4.46
2017-05-26T08:10:02.933Z,4.50
2017-05-26T08:12:32.195Z,4.56
2017-05-26T08:15:01.192Z,4.42
2017-05-26T08:17:30.169Z,4.32
2017-05-26T08:23:00.189Z,4.02
2017-05-26T08:25:29.212Z,4.70
2017-05-26T08:27:58.113Z,4.22
2017-05-26T08:30:27.382Z,5.14
2017-05-26T08:32:56.357Z,5.08
2017-05-26T08:35:25.321Z,4.66
2017-05-26T08:37:54.660Z,27.32
2017-05-26T08:40:23.644Z,7.84
2017-05-26T08:42:52.627Z,4.92
2017-05-26T08:45:22.355Z,6.10
2017-05-26T08:47:51.344Z,6.24
2017-05-26T08:50:20.355Z,5.16
2017-05-26T08:52:49.646Z,5.98
2017-05-26T08:55:19.577Z,7.46
2017-05-26T08:57:48.551Z,5.80
2017-05-26T09:00:18.046Z,5.44
2017-05-26T09:02:47.007Z,6.78
2017-05-26T09:05:15.989Z,5.46
2017-05-26T09:07:45.311Z,6.34
2017-05-26T09:10:14.750Z,5.28
2017-05-26T09:12:43.711Z,4.88
2017-05-26T09:15:12.944Z,4.12
2017-05-26T09:17:41.927Z,3.44
2017-05-26T09:20:10.904Z,3.80
2017-05-26T09:22:40.135Z,3.86
2017-05-26T09:25:09.101Z,3.62
2017-05-26T09:27:38.081Z,4.06
2017-05-26T09:30:07.357Z,3.96
2017-05-26T09:32:36.690Z,2.92
2017-05-26T09:35:06.125Z,3.20
2017-05-26T09:37:35.498Z,3.06
2017-05-26T09:40:04.465Z,3.48
2017-05-26T09:42:33.374Z,3.64
2017-05-26T09:45:02.630Z,4.32
2017-05-26T09:47:31.584Z,3.90
2017-05-26T09:50:00.573Z,4.18
2017-05-26T09:52:29.863Z,3.52
2017-05-26T09:54:58.840Z,3.76
2017-05-26T09:57:27.793Z,3.24
2017-05-26T09:59:57.013Z,3.30
2017-05-26T10:02:25.979Z,3.34
2017-05-26T10:04:54.952Z,3.34
2017-05-26T10:07:24.172Z,3.94
2017-05-26T10:09:53.146Z,3.12
2017-05-26T10:12:22.127Z,3.30
2017-05-26T10:14:51.456Z,3.22
2017-05-26T10:17:20.446Z,2.72
2017-05-26T10:19:49.444Z,2.88
2017-05-26T10:22:18.769Z,2.30
2017-05-26T10:24:47.741Z,2.12
2017-05-26T10:27:16.711Z,2.32
2017-05-26T10:29:46.023Z,2.10
2017-05-26T10:32:14.978Z,2.60
2017-05-26T10:34:43.968Z,2.26
2017-05-26T10:37:13.292Z,1.94
2017-05-26T10:39:42.255Z,2.66
2017-05-26T10:42:11.231Z,2.76
2017-05-26T10:44:40.473Z,2.34
2017-05-26T10:47:09.461Z,2.30
2017-05-26T10:49:38.460Z,2.00
2017-05-26T10:52:07.983Z,2.48
2017-05-26T10:54:36.981Z,2.58
2017-05-26T10:57:05.937Z,2.42
2017-05-26T10:59:35.154Z,2.64
2017-05-26T11:02:04.131Z,2.36
2017-05-26T11:04:33.133Z,2.52
2017-05-26T11:07:02.446Z,2.42
2017-05-26T11:09:31.411Z,3.10
2017-05-26T11:14:35.764Z,2.24
2017-05-26T11:17:04.770Z,2.58
2017-05-26T11:19:33.776Z,2.44
2017-05-26T11:22:03.125Z,3.44
2017-05-26T11:24:32.103Z,2.48
2017-05-26T11:27:01.088Z,2.56
2017-05-26T11:29:30.320Z,2.88
2017-05-26T11:31:59.294Z,2.00
2017-05-26T11:34:28.286Z,2.10
2017-05-26T11:36:57.599Z,2.24
2017-05-26T11:39:26.578Z,2.42
2017-05-26T11:41:55.550Z,2.42
2017-05-26T11:44:24.873Z,2.78
2017-05-26T11:46:53.835Z,2.42
2017-05-26T11:49:22.817Z,4.74
2017-05-26T11:51:52.059Z,3.20
2017-05-26T11:54:21.028Z,2.36
2017-05-26T11:56:50.002Z,2.48
2017-05-26T11:59:19.352Z,2.16
2017-05-26T12:01:48.363Z,2.30
2017-05-26T12:04:17.357Z,2.78
2017-05-26T12:06:46.632Z,2.32
2017-05-26T12:09:15.637Z,2.34
2017-05-26T12:11:44.635Z,2.30
2017-05-26T12:14:13.899Z,2.26
2017-05-26T12:16:43.008Z,2.38
2017-05-26T12:19:11.976Z,1.70
2017-05-26T12:21:41.187Z,2.02
2017-05-26T12:24:10.213Z,2.50
2017-05-26T12:26:39.188Z,2.16
2017-05-26T12:29:08.418Z,2.30
2017-05-26T12:31:37.390Z,2.20
2017-05-26T12:34:06.364Z,2.14
2017-05-26T12:36:35.584Z,2.50
2017-05-26T12:39:04.581Z,2.06
2017-05-26T12:41:33.810Z,1.70
2017-05-26T12:44:03.015Z,1.62
2017-05-26T12:46:31.996Z,2.20
2017-05-26T12:49:00.985Z,2.10
2017-05-26T12:51:30.210Z,1.78
2017-05-26T12:53:59.174Z,2.14
2017-05-26T12:56:30.419Z,2.56
2017-05-26T12:58:59.449Z,1.92
2017-05-26T13:01:28.422Z,1.94
2017-05-26T13:03:57.735Z,1.86
2017-05-26T13:06:26.753Z,2.04
2017-05-26T13:08:55.773Z,1.70
2017-05-26T13:11:25.025Z,2.02
2017-05-26T13:13:54.040Z,1.86
2017-05-26T13:16:23.034Z,1.80
2017-05-26T13:18:52.375Z,1.76
2017-05-26T13:21:21.346Z,2.52
2017-05-26T13:23:50.314Z,2.16
2017-05-26T13:26:19.517Z,1.68
2017-05-26T13:28:48.493Z,2.04
2017-05-26T13:31:17.489Z,2.02
2017-05-26T13:33:46.951Z,2.50
2017-05-26T13:36:15.966Z,2.82
2017-05-26T13:38:44.965Z,2.32
2017-05-26T13:41:14.188Z,2.80
2017-05-26T13:43:43.177Z,2.48
2017-05-26T13:46:12.170Z,2.76
2017-05-26T13:48:41.397Z,2.34
2017-05-26T13:51:10.385Z,2.18
2017-05-26T13:53:39.371Z,2.40
2017-05-26T13:56:08.659Z,1.94
2017-05-26T13:58:38.423Z,1.52
2017-05-26T14:01:07.400Z,1.52
2017-05-26T14:03:36.677Z,1.84
2017-05-26T14:09:07.001Z,2.32
2017-05-26T14:11:35.998Z,2.12
2017-05-26T14:14:05.017Z,2.16
2017-05-26T14:16:34.390Z,2.10
2017-05-26T14:19:03.396Z,2.06
2017-05-26T14:21:32.382Z,1.78
2017-05-26T14:24:01.594Z,3.04
2017-05-26T14:26:30.559Z,2.90
2017-05-26T14:28:59.557Z,1.98
2017-05-26T14:31:28.159Z,2.32
2017-05-26T14:33:57.138Z,1.98
2017-05-26T14:36:25.340Z,1.72
2017-05-26T14:38:54.593Z,2.02
2017-05-26T14:41:22.796Z,1.84
2017-05-26T14:43:51.777Z,2.00
2017-05-26T14:46:21.057Z,1.78
2017-05-26T14:48:50.033Z,1.88
2017-05-26T14:51:19.038Z,2.12
2017-05-26T14:53:48.350Z,1.68
2017-05-26T14:56:17.329Z,1.74
2017-05-26T14:58:46.380Z,1.64
2017-05-26T15:01:15.722Z,1.34
2017-05-26T15:03:44.718Z,1.62
2017-05-26T15:06:13.698Z,1.30
2017-05-26T15:08:42.963Z,1.56
2017-05-26T15:11:11.956Z,1.80
2017-05-26T15:13:40.923Z,2.00
2017-05-26T15:16:10.284Z,1.78
2017-05-26T15:18:39.277Z,1.92
2017-05-26T15:21:08.227Z,2.26
2017-05-26T15:23:37.492Z,2.00
2017-05-26T15:26:06.493Z,1.86
2017-05-26T15:28:35.494Z,1.78
2017-05-26T15:31:05.283Z,2.20
2017-05-26T15:33:34.251Z,2.02
2017-05-26T15:36:03.216Z,1.62
2017-05-26T15:38:33.236Z,1.60
2017-05-26T15:41:02.222Z,2.04
2017-05-26T15:43:31.198Z,1.56
2017-05-26T15:46:00.445Z,1.66
2017-05-26T15:48:29.416Z,1.74
2017-05-26T15:50:58.409Z,1.74
2017-05-26T15:53:27.685Z,1.48
2017-05-26T15:55:56.654Z,1.40
2017-05-26T15:58:25.648Z,2.36
2017-05-26T16:00:55.400Z,1.96
2017-05-26T16:03:24.353Z,1.82
2017-05-26T16:05:53.333Z,1.58
2017-05-26T16:08:22.673Z,1.62
2017-05-26T16:10:51.657Z,1.76
2017-05-26T16:13:20.628Z,1.52
2017-05-26T16:15:49.972Z,1.80
2017-05-26T16:18:18.946Z,1.66
2017-05-26T16:20:47.971Z,1.58
2017-05-26T16:23:17.194Z,1.82
2017-05-26T16:25:46.171Z,2.04
2017-05-26T16:28:15.158Z,2.14
2017-05-26T16:30:44.565Z,2.14
2017-05-26T16:33:12.827Z,1.92
2017-05-26T16:35:41.829Z,2.06
2017-05-26T16:38:11.098Z,2.00
2017-05-26T16:40:40.107Z,1.94
2017-05-26T16:43:09.082Z,1.82
2017-05-26T16:45:38.376Z,2.36
2017-05-26T16:48:07.378Z,1.90
2017-05-26T16:50:36.357Z,2.40
2017-05-26T16:53:04.839Z,2.12
2017-05-26T16:55:33.847Z,1.58
2017-05-26T16:58:02.858Z,2.28
2017-05-26T17:00:32.110Z,1.80
2017-05-26T17:03:01.095Z,4.60
2017-05-26T17:05:30.430Z,12.14
2017-05-26T17:07:59.703Z,21.58
2017-05-26T17:10:28.671Z,4.66
2017-05-26T17:12:57.647Z,4.28
2017-05-26T17:15:26.886Z,1.86
2017-05-26T17:17:55.859Z,1.98
2017-05-26T17:20:24.849Z,2.72
2017-05-26T17:22:54.087Z,2.26
2017-05-26T17:25:23.037Z,2.78
2017-05-26T17:27:51.996Z,4.86
2017-05-26T17:30:21.258Z,30.88
2017-05-26T17:32:50.261Z,9.80
2017-05-26T17:35:19.230Z,20.22
2017-05-26T17:37:48.515Z,9.24
2017-05-26T17:40:17.491Z,10.74
2017-05-26T17:42:46.428Z,7.78
2017-05-26T17:45:15.672Z,5.30
2017-05-26T17:47:44.626Z,10.90
2017-05-26T17:50:13.585Z,7.52
2017-05-26T17:52:42.886Z,9.64
2017-05-26T17:55:11.874Z,3.12
2017-05-26T17:57:40.864Z,2.88
2017-05-26T18:00:10.069Z,3.04
2017-05-26T18:02:39.051Z,2.70
2017-05-26T18:05:08.103Z,4.58
2017-05-26T18:07:37.299Z,10.24
2017-05-26T18:10:06.276Z,15.26
2017-05-26T18:12:35.264Z,4.16
2017-05-26T18:15:04.509Z,7.86
2017-05-26T18:17:33.483Z,3.86
2017-05-26T18:20:02.477Z,3.12
2017-05-26T18:22:31.780Z,7.82
2017-05-26T18:25:00.808Z,4.28
2017-05-26T18:27:29.801Z,3.00
2017-05-26T18:29:59.040Z,3.50
2017-05-26T18:32:28.011Z,2.68
2017-05-26T18:34:56.985Z,2.34
2017-05-26T18:37:26.253Z,2.22
2017-05-26T18:39:55.252Z,1.98
2017-05-26T18:42:24.217Z,2.32
2017-05-26T18:44:53.651Z,2.12
2017-05-26T18:47:22.622Z,2.12
2017-05-26T18:49:51.584Z,2.22
2017-05-26T18:52:20.803Z,2.36
2017-05-26T18:54:49.789Z,2.08
2017-05-26T18:57:18.775Z,2.36
2017-05-26T18:59:48.029Z,2.54
2017-05-26T19:02:17.004Z,2.62
2017-05-26T19:04:45.962Z,2.90
2017-05-26T19:07:15.318Z,2.70
2017-05-26T19:09:44.297Z,3.42
2017-05-26T19:12:13.293Z,2.88
2017-05-26T19:14:42.516Z,2.68
2017-05-26T19:17:11.509Z,2.90
2017-05-26T19:19:40.478Z,2.72
2017-05-26T19:22:09.721Z,2.98
2017-05-26T19:24:38.734Z,3.26
2017-05-26T19:27:07.706Z,2.62
2017-05-26T19:29:36.965Z,2.60
2017-05-26T19:32:05.944Z,2.38
2017-05-26T19:34:34.905Z,3.62
2017-05-26T19:37:04.136Z,2.24
2017-05-26T19:39:33.199Z,2.72
2017-05-26T19:42:02.175Z,2.26
2017-05-26T19:44:31.384Z,2.76
2017-05-26T19:47:00.398Z,2.44
2017-05-26T19:49:28.606Z,2.62
2017-05-26T19:51:57.839Z,2.46
2017-05-26T19:54:26.833Z,2.40
2017-05-26T19:56:55.824Z,2.60
2017-05-26T19:59:25.035Z,2.72
2017-05-26T20:01:54.007Z,2.68
2017-05-26T20:04:22.981Z,2.22
2017-05-26T20:06:52.218Z,2.54
2017-05-26T20:09:21.196Z,2.36
2017-05-26T20:11:50.155Z,2.60
2017-05-26T20:14:19.394Z,2.48
2017-05-26T20:16:48.359Z,2.44
2017-05-26T20:19:17.330Z,2.40
2017-05-26T20:21:46.625Z,2.58
2017-05-26T20:24:15.602Z,2.92
2017-05-26T20:26:44.611Z,2.50
2017-05-26T20:29:13.918Z,2.52
2017-05-26T20:31:42.904Z,3.08
2017-05-26T20:34:11.866Z,3.24
2017-05-26T20:36:41.198Z,3.60
2017-05-26T20:39:10.176Z,3.18
2017-05-26T20:41:39.176Z,3.46
2017-05-26T20:44:08.418Z,2.24
2017-05-26T20:46:37.389Z,2.74
2017-05-26T20:49:06.371Z,3.20
2017-05-26T20:51:35.761Z,3.30
2017-05-26T20:54:04.741Z,3.24
2017-05-26T20:56:33.189Z,3.22
2017-05-26T20:59:02.431Z,3.00
2017-05-26T21:01:30.619Z,3.02
2017-05-26T21:03:58.841Z,3.54
2017-05-26T21:06:27.293Z,3.88
2017-05-26T21:08:56.283Z,3.30
2017-05-26T21:11:25.259Z,3.88
2017-05-26T21:13:53.843Z,3.58
2017-05-26T21:16:22.839Z,4.00
2017-05-26T21:18:51.809Z,3.84
2017-05-26T21:21:20.375Z,3.80
2017-05-26T21:23:49.482Z,4.42
2017-05-26T21:26:17.732Z,4.28
2017-05-26T21:28:46.952Z,4.02
2017-05-26T21:31:15.926Z,4.32
2017-05-26T21:33:45.017Z,4.66
2017-05-26T21:36:13.487Z,3.94
2017-05-26T21:38:42.462Z,4.54
2017-05-26T21:41:11.489Z,5.10
2017-05-26T21:43:40.910Z,4.70
2017-05-26T21:46:09.911Z,4.28
2017-05-26T21:48:38.906Z,4.08
2017-05-26T21:51:08.121Z,4.82
2017-05-26T21:53:37.083Z,3.82
2017-05-26T21:56:06.078Z,4.28
2017-05-26T21:58:35.351Z,6.02
2017-05-26T22:01:04.368Z,7.00
2017-05-26T22:03:32.707Z,5.78
2017-05-26T22:06:01.300Z,4.94
2017-05-26T22:08:30.294Z,5.50
2017-05-26T22:10:59.286Z,5.70
2017-05-26T22:13:28.579Z,5.70
2017-05-26T22:15:56.790Z,5.56
2017-05-26T22:18:24.899Z,5.78
2017-05-26T22:20:54.323Z,5.28
2017-05-26T22:23:26.596Z,5.48
2017-05-26T22:25:56.038Z,5.60
2017-05-26T22:28:25.002Z,5.62
2017-05-26T22:30:53.974Z,5.68
2017-05-26T22:33:23.312Z,6.22
2017-05-26T22:35:52.314Z,6.38
2017-05-26T22:38:21.304Z,7.34
2017-05-26T22:40:50.561Z,7.16
2017-05-26T22:43:19.570Z,6.22
2017-05-26T22:45:48.574Z,6.68
2017-05-26T22:48:17.807Z,7.08
2017-05-26T22:50:46.785Z,6.82
2017-05-26T22:53:15.779Z,8.08
2017-05-26T22:55:44.986Z,7.18
2017-05-26T22:58:13.989Z,7.60
2017-05-26T23:00:42.978Z,7.55
2017-05-26T23:03:12.297Z,7.22
2017-05-26T23:05:41.298Z,7.20
2017-05-26T23:08:09.544Z,7.16
2017-05-26T23:10:38.884Z,7.78
2017-05-26T23:13:07.876Z,7.02
2017-05-26T23:15:36.837Z,6.96
2017-05-26T23:18:06.049Z,7.22
2017-05-26T23:20:35.026Z,7.63
2017-05-26T23:23:03.997Z,8.48
2017-05-26T23:25:32.465Z,9.57
2017-05-26T23:28:01.449Z,8.60
2017-05-26T23:30:30.444Z,8.44
2017-05-26T23:32:59.685Z,8.80
2017-05-26T23:35:28.695Z,8.48
2017-05-26T23:37:56.964Z,7.82
2017-05-26T23:40:26.165Z,7.52
2017-05-26T23:42:55.148Z,8.63
2017-05-26T23:48:02.734Z,7.18
2017-05-26T23:50:31.714Z,7.98
2017-05-26T23:53:00.688Z,6.92
2017-05-26T23:55:29.914Z,7.58
2017-05-26T23:57:58.901Z,7.57
